sensor_id;sensor_type;location;lat;lon;timestamp;pressure;altitude;pressure_sealevel;temperature;humidity
58919;BME280;44704;50.122;19.932;2022-09-17T00:01:41;97433.38;;;9.01;94.60
58919;BME280;44704;50.122;19.932;2022-09-17T00:04:09;97432.11;;;8.99;94.77
58919;BME280;44704;50.122;19.932;2022-09-17T00:06:38;97425.74;;;8.98;94.75
58919;BME280;44704;50.122;19.932;2022-09-17T00:09:08;97425.86;;;8.99;95.06
58919;BME280;44704;50.122;19.932;2022-09-17T00:11:48;97426.26;;;9.01;95.24
58919;BME280;44704;50.122;19.932;2022-09-17T00:14:16;97430.55;;;9.01;95.29
58919;BME280;44704;50.122;19.932;2022-09-17T00:16:45;97431.10;;;9.01;95.21
58919;BME280;44704;50.122;19.932;2022-09-17T00:19:21;97434.58;;;9.02;95.27
58919;BME280;44704;50.122;19.932;2022-09-17T00:21:48;97433.48;;;9.02;95.21
58919;BME280;44704;50.122;19.932;2022-09-17T00:24:18;97431.70;;;9.02;95.07
58919;BME280;44704;50.122;19.932;2022-09-17T00:26:49;97425.66;;;9.01;95.28
58919;BME280;44704;50.122;19.932;2022-09-17T00:29:18;97420.99;;;9.01;95.09
58919;BME280;44704;50.122;19.932;2022-09-17T00:31:47;97417.48;;;8.99;94.97
58919;BME280;44704;50.122;19.932;2022-09-17T00:34:15;97420.90;;;8.97;94.82
58919;BME280;44704;50.122;19.932;2022-09-17T00:36:45;97425.45;;;8.96;94.96
58919;BME280;44704;50.122;19.932;2022-09-17T00:39:16;97425.92;;;8.94;95.06
58919;BME280;44704;50.122;19.932;2022-09-17T00:41:45;97427.88;;;8.92;94.98
58919;BME280;44704;50.122;19.932;2022-09-17T00:47:24;97429.00;;;8.90;95.24
58919;BME280;44704;50.122;19.932;2022-09-17T00:50:15;97426.18;;;8.91;95.70
58919;BME280;44704;50.122;19.932;2022-09-17T00:52:50;97425.11;;;8.92;95.77
58919;BME280;44704;50.122;19.932;2022-09-17T00:55:26;97421.54;;;8.93;95.79
58919;BME280;44704;50.122;19.932;2022-09-17T00:58:10;97415.42;;;8.90;95.73
58919;BME280;44704;50.122;19.932;2022-09-17T01:00:51;97416.02;;;8.89;95.87
58919;BME280;44704;50.122;19.932;2022-09-17T01:03:18;97419.33;;;8.88;95.89
58919;BME280;44704;50.122;19.932;2022-09-17T01:05:58;97418.17;;;8.88;95.97
58919;BME280;44704;50.122;19.932;2022-09-17T01:08:52;97419.09;;;8.87;95.77
58919;BME280;44704;50.122;19.932;2022-09-17T01:36:48;97415.74;;;8.64;95.22
58919;BME280;44704;50.122;19.932;2022-09-17T01:39:57;97414.56;;;8.64;95.52
58919;BME280;44704;50.122;19.932;2022-09-17T01:42:28;97415.09;;;8.63;95.63
58919;BME280;44704;50.122;19.932;2022-09-17T01:45:21;97419.20;;;8.62;95.79
58919;BME280;44704;50.122;19.932;2022-09-17T01:48:00;97419.80;;;8.61;95.71
58919;BME280;44704;50.122;19.932;2022-09-17T01:50:47;97427.39;;;8.59;95.78
58919;BME280;44704;50.122;19.932;2022-09-17T01:53:17;97429.16;;;8.58;95.53
58919;BME280;44704;50.122;19.932;2022-09-17T01:55:50;97425.99;;;8.56;95.79
58919;BME280;44704;50.122;19.932;2022-09-17T01:58:26;97421.15;;;8.54;95.88
58919;BME280;44704;50.122;19.932;2022-09-17T02:00:59;97420.18;;;8.54;95.96
58919;BME280;44704;50.122;19.932;2022-09-17T02:03:39;97421.20;;;8.53;96.01
58919;BME280;44704;50.122;19.932;2022-09-17T02:06:12;97420.70;;;8.53;96.12
58919;BME280;44704;50.122;19.932;2022-09-17T02:08:49;97420.42;;;8.52;96.03
58919;BME280;44704;50.122;19.932;2022-09-17T02:11:18;97419.60;;;8.50;95.70
58919;BME280;44704;50.122;19.932;2022-09-17T02:13:46;97420.73;;;8.49;95.84
58919;BME280;44704;50.122;19.932;2022-09-17T02:16:27;97424.19;;;8.48;95.89
58919;BME280;44704;50.122;19.932;2022-09-17T02:19:17;97422.77;;;8.48;95.97
58919;BME280;44704;50.122;19.932;2022-09-17T02:22:20;97429.77;;;8.47;96.06
58919;BME280;44704;50.122;19.932;2022-09-17T02:30:29;97428.36;;;8.40;95.22
58919;BME280;44704;50.122;19.932;2022-09-17T02:32:56;97434.09;;;8.36;95.32
58919;BME280;44704;50.122;19.932;2022-09-17T02:35:23;97439.98;;;8.34;95.51
58919;BME280;44704;50.122;19.932;2022-09-17T02:37:50;97447.23;;;8.32;95.37
58919;BME280;44704;50.122;19.932;2022-09-17T02:40:20;97443.39;;;8.29;95.68
58919;BME280;44704;50.122;19.932;2022-09-17T02:53:45;97429.76;;;8.16;95.68
58919;BME280;44704;50.122;19.932;2022-09-17T03:01:43;97419.18;;;8.07;96.06
58919;BME280;44704;50.122;19.932;2022-09-17T03:04:14;97417.67;;;8.08;96.60
58919;BME280;44704;50.122;19.932;2022-09-17T03:06:45;97414.17;;;8.09;96.62
58919;BME280;44704;50.122;19.932;2022-09-17T03:09:13;97412.34;;;8.10;96.66
58919;BME280;44704;50.122;19.932;2022-09-17T03:11:41;97410.73;;;8.12;96.95
58919;BME280;44704;50.122;19.932;2022-09-17T03:14:08;97409.92;;;8.14;96.69
58919;BME280;44704;50.122;19.932;2022-09-17T03:16:35;97405.39;;;8.15;97.03
58919;BME280;44704;50.122;19.932;2022-09-17T03:19:02;97398.95;;;8.17;97.08
58919;BME280;44704;50.122;19.932;2022-09-17T03:21:29;97396.75;;;8.21;97.26
58919;BME280;44704;50.122;19.932;2022-09-17T03:23:57;97399.66;;;8.24;97.27
58919;BME280;44704;50.122;19.932;2022-09-17T03:26:26;97388.08;;;8.26;97.22
58919;BME280;44704;50.122;19.932;2022-09-17T03:28:55;97393.85;;;8.28;96.99
58919;BME280;44704;50.122;19.932;2022-09-17T03:31:24;97391.09;;;8.28;97.23
58919;BME280;44704;50.122;19.932;2022-09-17T03:33:51;97386.00;;;8.30;97.25
58919;BME280;44704;50.122;19.932;2022-09-17T03:36:17;97382.60;;;8.31;97.16
58919;BME280;44704;50.122;19.932;2022-09-17T03:38:44;97379.42;;;8.33;97.10
58919;BME280;44704;50.122;19.932;2022-09-17T03:41:11;97378.13;;;8.33;97.18
58919;BME280;44704;50.122;19.932;2022-09-17T03:43:38;97387.22;;;8.32;96.68
58919;BME280;44704;50.122;19.932;2022-09-17T03:46:05;97382.21;;;8.30;96.91
58919;BME280;44704;50.122;19.932;2022-09-17T03:48:32;97381.11;;;8.28;97.15
58919;BME280;44704;50.122;19.932;2022-09-17T03:51:03;97380.90;;;8.29;97.30
58919;BME280;44704;50.122;19.932;2022-09-17T03:53:30;97373.64;;;8.30;97.39
58919;BME280;44704;50.122;19.932;2022-09-17T03:55:59;97370.36;;;8.32;97.51
58919;BME280;44704;50.122;19.932;2022-09-17T03:58:27;97367.11;;;8.34;97.42
58919;BME280;44704;50.122;19.932;2022-09-17T04:00:55;97365.02;;;8.36;97.37
58919;BME280;44704;50.122;19.932;2022-09-17T04:03:24;97368.88;;;8.38;97.17
58919;BME280;44704;50.122;19.932;2022-09-17T04:05:51;97365.58;;;8.39;97.20
58919;BME280;44704;50.122;19.932;2022-09-17T04:08:19;97366.08;;;8.41;97.00
58919;BME280;44704;50.122;19.932;2022-09-17T04:10:47;97368.45;;;8.42;97.23
58919;BME280;44704;50.122;19.932;2022-09-17T04:13:15;97369.73;;;8.44;97.07
58919;BME280;44704;50.122;19.932;2022-09-17T04:15:43;97371.32;;;8.46;97.12
58919;BME280;44704;50.122;19.932;2022-09-17T04:18:10;97371.17;;;8.48;97.12
58919;BME280;44704;50.122;19.932;2022-09-17T04:20:38;97364.70;;;8.50;97.06
58919;BME280;44704;50.122;19.932;2022-09-17T04:23:05;97364.27;;;8.52;96.98
58919;BME280;44704;50.122;19.932;2022-09-17T04:25:34;97362.50;;;8.56;96.88
58919;BME280;44704;50.122;19.932;2022-09-17T04:28:01;97355.83;;;8.57;96.90
58919;BME280;44704;50.122;19.932;2022-09-17T04:30:28;97353.52;;;8.60;97.05
58919;BME280;44704;50.122;19.932;2022-09-17T04:32:55;97359.61;;;8.61;96.79
58919;BME280;44704;50.122;19.932;2022-09-17T04:35:22;97363.45;;;8.64;96.77
58919;BME280;44704;50.122;19.932;2022-09-17T04:37:58;97363.30;;;8.67;96.80
58919;BME280;44704;50.122;19.932;2022-09-17T04:40:26;97370.59;;;8.70;96.73
58919;BME280;44704;50.122;19.932;2022-09-17T04:42:54;97377.39;;;8.73;96.70
58919;BME280;44704;50.122;19.932;2022-09-17T04:45:22;97376.98;;;8.76;96.57
58919;BME280;44704;50.122;19.932;2022-09-17T04:47:49;97382.02;;;8.80;96.62
58919;BME280;44704;50.122;19.932;2022-09-17T04:50:19;97385.28;;;8.82;96.39
58919;BME280;44704;50.122;19.932;2022-09-17T04:52:47;97387.37;;;8.85;96.43
58919;BME280;44704;50.122;19.932;2022-09-17T04:55:15;97386.30;;;8.88;96.38
58919;BME280;44704;50.122;19.932;2022-09-17T04:57:50;97377.52;;;8.91;96.24
58919;BME280;44704;50.122;19.932;2022-09-17T05:00:19;97379.89;;;8.95;96.15
58919;BME280;44704;50.122;19.932;2022-09-17T05:02:48;97378.92;;;8.98;96.07
58919;BME280;44704;50.122;19.932;2022-09-17T05:05:16;97379.10;;;8.99;95.89
58919;BME280;44704;50.122;19.932;2022-09-17T05:07:44;97372.92;;;9.00;95.87
58919;BME280;44704;50.122;19.932;2022-09-17T05:10:13;97366.79;;;9.02;95.83
58919;BME280;44704;50.122;19.932;2022-09-17T05:12:40;97367.15;;;9.04;95.70
58919;BME280;44704;50.122;19.932;2022-09-17T05:15:07;97364.97;;;9.05;95.56
58919;BME280;44704;50.122;19.932;2022-09-17T05:17:34;97362.20;;;9.04;95.47
58919;BME280;44704;50.122;19.932;2022-09-17T05:20:01;97359.38;;;9.05;95.40
58919;BME280;44704;50.122;19.932;2022-09-17T05:22:28;97362.32;;;9.07;95.45
58919;BME280;44704;50.122;19.932;2022-09-17T05:24:55;97362.10;;;9.07;95.35
58919;BME280;44704;50.122;19.932;2022-09-17T05:27:24;97364.39;;;9.10;95.36
58919;BME280;44704;50.122;19.932;2022-09-17T05:29:50;97369.90;;;9.11;95.25
58919;BME280;44704;50.122;19.932;2022-09-17T05:32:17;97368.38;;;9.14;95.39
58919;BME280;44704;50.122;19.932;2022-09-17T05:34:44;97366.15;;;9.19;95.51
58919;BME280;44704;50.122;19.932;2022-09-17T05:37:11;97363.77;;;9.23;95.40
58919;BME280;44704;50.122;19.932;2022-09-17T05:39:38;97361.41;;;9.29;95.66
58919;BME280;44704;50.122;19.932;2022-09-17T05:42:05;97357.37;;;9.35;95.78
58919;BME280;44704;50.122;19.932;2022-09-17T05:44:32;97351.58;;;9.42;95.71
58919;BME280;44704;50.122;19.932;2022-09-17T05:46:58;97347.04;;;9.47;95.69
58919;BME280;44704;50.122;19.932;2022-09-17T05:49:25;97346.96;;;9.52;95.54
58919;BME280;44704;50.122;19.932;2022-09-17T05:51:52;97348.33;;;9.58;95.47
58919;BME280;44704;50.122;19.932;2022-09-17T05:54:19;97360.92;;;9.65;95.38
58919;BME280;44704;50.122;19.932;2022-09-17T05:56:46;97380.14;;;9.72;95.48
58919;BME280;44704;50.122;19.932;2022-09-17T05:59:13;97374.56;;;9.79;95.50
58919;BME280;44704;50.122;19.932;2022-09-17T06:01:41;97378.95;;;9.85;95.27
58919;BME280;44704;50.122;19.932;2022-09-17T06:04:08;97376.23;;;9.91;95.06
58919;BME280;44704;50.122;19.932;2022-09-17T06:06:35;97370.15;;;9.95;94.96
58919;BME280;44704;50.122;19.932;2022-09-17T06:09:07;97372.13;;;10.00;94.73
58919;BME280;44704;50.122;19.932;2022-09-17T06:11:35;97371.22;;;10.05;94.69
58919;BME280;44704;50.122;19.932;2022-09-17T06:14:02;97375.90;;;10.08;94.46
58919;BME280;44704;50.122;19.932;2022-09-17T06:16:29;97379.54;;;10.10;93.94
58919;BME280;44704;50.122;19.932;2022-09-17T06:18:57;97370.41;;;10.12;93.45
58919;BME280;44704;50.122;19.932;2022-09-17T06:21:23;97363.29;;;10.15;93.52
58919;BME280;44704;50.122;19.932;2022-09-17T06:23:51;97363.68;;;10.21;93.64
58919;BME280;44704;50.122;19.932;2022-09-17T06:26:18;97358.02;;;10.24;93.18
58919;BME280;44704;50.122;19.932;2022-09-17T06:28:45;97360.92;;;10.30;93.20
58919;BME280;44704;50.122;19.932;2022-09-17T06:31:12;97352.95;;;10.34;93.15
58919;BME280;44704;50.122;19.932;2022-09-17T06:33:39;97354.21;;;10.39;92.62
58919;BME280;44704;50.122;19.932;2022-09-17T06:36:09;97355.75;;;10.44;92.51
58919;BME280;44704;50.122;19.932;2022-09-17T06:38:37;97362.61;;;10.46;92.26
58919;BME280;44704;50.122;19.932;2022-09-17T06:41:04;97366.41;;;10.48;92.25
58919;BME280;44704;50.122;19.932;2022-09-17T06:43:31;97371.48;;;10.52;92.28
58919;BME280;44704;50.122;19.932;2022-09-17T06:46:00;97371.31;;;10.58;92.32
58919;BME280;44704;50.122;19.932;2022-09-17T06:48:29;97367.67;;;10.62;91.80
58919;BME280;44704;50.122;19.932;2022-09-17T06:51:01;97364.19;;;10.67;91.91
58919;BME280;44704;50.122;19.932;2022-09-17T06:53:29;97361.02;;;10.71;91.84
58919;BME280;44704;50.122;19.932;2022-09-17T06:55:57;97364.23;;;10.77;91.38
58919;BME280;44704;50.122;19.932;2022-09-17T06:58:25;97372.02;;;10.82;91.47
58919;BME280;44704;50.122;19.932;2022-09-17T07:00:57;97375.78;;;10.88;91.43
58919;BME280;44704;50.122;19.932;2022-09-17T07:03:25;97379.96;;;10.94;91.18
58919;BME280;44704;50.122;19.932;2022-09-17T07:05:52;97377.66;;;10.98;91.06
58919;BME280;44704;50.122;19.932;2022-09-17T07:08:19;97370.36;;;11.02;90.45
58919;BME280;44704;50.122;19.932;2022-09-17T07:10:48;97364.64;;;11.06;90.50
58919;BME280;44704;50.122;19.932;2022-09-17T07:13:15;97371.17;;;11.11;90.40
58919;BME280;44704;50.122;19.932;2022-09-17T07:15:42;97375.68;;;11.16;90.14
58919;BME280;44704;50.122;19.932;2022-09-17T07:18:10;97367.23;;;11.23;90.14
58919;BME280;44704;50.122;19.932;2022-09-17T07:20:37;97359.90;;;11.31;89.74
58919;BME280;44704;50.122;19.932;2022-09-17T07:23:04;97361.09;;;11.36;89.26
58919;BME280;44704;50.122;19.932;2022-09-17T07:25:31;97365.80;;;11.44;89.80
58919;BME280;44704;50.122;19.932;2022-09-17T07:27:58;97370.14;;;11.51;88.97
58919;BME280;44704;50.122;19.932;2022-09-17T07:30:25;97367.45;;;11.59;88.73
58919;BME280;44704;50.122;19.932;2022-09-17T07:32:53;97369.52;;;11.70;88.41
58919;BME280;44704;50.122;19.932;2022-09-17T07:35:20;97380.23;;;11.80;87.99
58919;BME280;44704;50.122;19.932;2022-09-17T07:37:48;97382.00;;;11.87;87.42
58919;BME280;44704;50.122;19.932;2022-09-17T07:40:16;97382.05;;;11.94;87.19
58919;BME280;44704;50.122;19.932;2022-09-17T07:42:44;97388.30;;;11.98;86.36
58919;BME280;44704;50.122;19.932;2022-09-17T07:45:11;97399.04;;;12.02;85.70
58919;BME280;44704;50.122;19.932;2022-09-17T07:47:39;97414.09;;;12.04;85.36
58919;BME280;44704;50.122;19.932;2022-09-17T07:50:11;97420.58;;;12.07;85.41
58919;BME280;44704;50.122;19.932;2022-09-17T07:52:49;97421.04;;;12.12;84.93
58919;BME280;44704;50.122;19.932;2022-09-17T07:55:16;97416.05;;;12.14;84.53
58919;BME280;44704;50.122;19.932;2022-09-17T07:57:49;97419.98;;;12.18;84.68
58919;BME280;44704;50.122;19.932;2022-09-17T08:00:16;97415.48;;;12.21;84.43
58919;BME280;44704;50.122;19.932;2022-09-17T08:02:44;97415.05;;;12.21;83.61
58919;BME280;44704;50.122;19.932;2022-09-17T08:05:13;97415.54;;;12.20;83.18
58919;BME280;44704;50.122;19.932;2022-09-17T08:07:40;97412.05;;;12.20;82.19
58919;BME280;44704;50.122;19.932;2022-09-17T08:10:08;97406.52;;;12.22;82.31
58919;BME280;44704;50.122;19.932;2022-09-17T08:12:36;97401.20;;;12.28;82.46
58919;BME280;44704;50.122;19.932;2022-09-17T08:15:03;97404.11;;;12.33;82.37
58919;BME280;44704;50.122;19.932;2022-09-17T08:17:31;97404.96;;;12.37;82.74
58919;BME280;44704;50.122;19.932;2022-09-17T08:20:00;97395.65;;;12.40;82.14
58919;BME280;44704;50.122;19.932;2022-09-17T08:22:33;97391.33;;;12.42;82.03
58919;BME280;44704;50.122;19.932;2022-09-17T08:25:16;97399.89;;;12.45;82.28
58919;BME280;44704;50.122;19.932;2022-09-17T08:27:43;97399.41;;;12.50;82.20
58919;BME280;44704;50.122;19.932;2022-09-17T08:30:10;97396.44;;;12.52;81.66
58919;BME280;44704;50.122;19.932;2022-09-17T08:32:37;97400.80;;;12.56;81.81
58919;BME280;44704;50.122;19.932;2022-09-17T08:35:04;97397.34;;;12.56;81.26
58919;BME280;44704;50.122;19.932;2022-09-17T08:37:31;97395.67;;;12.54;80.81
58919;BME280;44704;50.122;19.932;2022-09-17T08:39:58;97395.73;;;12.53;80.17
58919;BME280;44704;50.122;19.932;2022-09-17T08:42:32;97403.66;;;12.59;80.23
58919;BME280;44704;50.122;19.932;2022-09-17T08:45:07;97403.75;;;12.69;80.25
58919;BME280;44704;50.122;19.932;2022-09-17T08:47:42;97399.67;;;12.76;79.94
58919;BME280;44704;50.122;19.932;2022-09-17T08:50:35;97401.66;;;12.79;79.34
58919;BME280;44704;50.122;19.932;2022-09-17T08:53:17;97405.75;;;12.86;79.61
58919;BME280;44704;50.122;19.932;2022-09-17T08:56:01;97407.76;;;12.94;78.65
58919;BME280;44704;50.122;19.932;2022-09-17T08:58:52;97403.90;;;13.06;78.41
58919;BME280;44704;50.122;19.932;2022-09-17T09:01:33;97391.40;;;13.20;78.33
58919;BME280;44704;50.122;19.932;2022-09-17T09:04:24;97380.29;;;13.28;76.61
58919;BME280;44704;50.122;19.932;2022-09-17T09:09:39;97371.84;;;13.63;75.82
58919;BME280;44704;50.122;19.932;2022-09-17T09:12:15;97372.58;;;13.65;73.65
58919;BME280;44704;50.122;19.932;2022-09-17T09:14:48;97369.06;;;13.62;74.09
58919;BME280;44704;50.122;19.932;2022-09-17T09:17:18;97364.86;;;13.57;73.35
58919;BME280;44704;50.122;19.932;2022-09-17T09:19:47;97367.14;;;13.57;73.55
58919;BME280;44704;50.122;19.932;2022-09-17T09:22:47;97371.60;;;13.64;73.38
58919;BME280;44704;50.122;19.932;2022-09-17T09:25:30;97361.19;;;13.75;71.78
58919;BME280;44704;50.122;19.932;2022-09-17T09:33:29;97368.98;;;14.11;73.03
58919;BME280;44704;50.122;19.932;2022-09-17T09:35:57;97376.86;;;14.23;71.81
58919;BME280;44704;50.122;19.932;2022-09-17T09:39:00;97382.65;;;14.20;70.04
58919;BME280;44704;50.122;19.932;2022-09-17T09:44:11;97392.39;;;14.33;70.01
58919;BME280;44704;50.122;19.932;2022-09-17T09:52:25;97393.27;;;14.44;67.66
58919;BME280;44704;50.122;19.932;2022-09-17T09:58:09;97383.23;;;14.57;68.37
58919;BME280;44704;50.122;19.932;2022-09-17T10:00:42;97385.09;;;14.66;66.03
58919;BME280;44704;50.122;19.932;2022-09-17T10:03:19;97386.09;;;14.65;65.44
58919;BME280;44704;50.122;19.932;2022-09-17T10:06:00;97388.77;;;14.71;66.19
58919;BME280;44704;50.122;19.932;2022-09-17T10:08:32;97392.57;;;14.87;65.74
58919;BME280;44704;50.122;19.932;2022-09-17T10:11:15;97394.88;;;15.08;64.68
58919;BME280;44704;50.122;19.932;2022-09-17T10:13:45;97392.45;;;15.24;63.54
58919;BME280;44704;50.122;19.932;2022-09-17T10:18:44;97394.91;;;15.51;63.92
58919;BME280;44704;50.122;19.932;2022-09-17T10:23:46;97397.03;;;15.80;62.65
58919;BME280;44704;50.122;19.932;2022-09-17T10:26:29;97389.48;;;15.86;63.36
58919;BME280;44704;50.122;19.932;2022-09-17T10:29:03;97387.30;;;15.99;63.28
58919;BME280;44704;50.122;19.932;2022-09-17T10:31:51;97388.36;;;16.08;62.50
58919;BME280;44704;50.122;19.932;2022-09-17T10:34:29;97395.17;;;16.20;61.15
58919;BME280;44704;50.122;19.932;2022-09-17T10:36:57;97401.50;;;16.16;61.11
58919;BME280;44704;50.122;19.932;2022-09-17T10:39:33;97397.31;;;16.09;60.89
58919;BME280;44704;50.122;19.932;2022-09-17T10:42:08;97398.23;;;16.00;60.88
58919;BME280;44704;50.122;19.932;2022-09-17T10:47:28;97396.75;;;15.70;60.24
58919;BME280;44704;50.122;19.932;2022-09-17T10:49:58;97397.77;;;15.48;60.63
58919;BME280;44704;50.122;19.932;2022-09-17T10:52:33;97400.04;;;15.29;62.20
58919;BME280;44704;50.122;19.932;2022-09-17T10:58:02;97393.52;;;14.90;62.69
58919;BME280;44704;50.122;19.932;2022-09-17T11:26:40;97424.32;;;13.14;68.18
58919;BME280;44704;50.122;19.932;2022-09-17T11:32:08;97425.35;;;13.08;69.55
58919;BME280;44704;50.122;19.932;2022-09-17T11:35:01;97430.33;;;13.08;69.66
58919;BME280;44704;50.122;19.932;2022-09-17T11:37:34;97421.16;;;13.07;69.93
58919;BME280;44704;50.122;19.932;2022-09-17T11:42:43;97414.61;;;13.07;70.59
58919;BME280;44704;50.122;19.932;2022-09-17T11:45:24;97416.73;;;13.08;70.40
58919;BME280;44704;50.122;19.932;2022-09-17T11:48:02;97423.24;;;13.11;70.34
58919;BME280;44704;50.122;19.932;2022-09-17T11:50:43;97426.21;;;13.17;70.68
58919;BME280;44704;50.122;19.932;2022-09-17T11:53:33;97428.77;;;13.24;71.01
58919;BME280;44704;50.122;19.932;2022-09-17T11:56:55;97426.31;;;13.29;70.53
58919;BME280;44704;50.122;19.932;2022-09-17T11:59:43;97420.32;;;13.37;70.75
58919;BME280;44704;50.122;19.932;2022-09-17T12:05:16;97407.50;;;13.53;69.93
58919;BME280;44704;50.122;19.932;2022-09-17T12:07:53;97409.95;;;13.55;69.58
58919;BME280;44704;50.122;19.932;2022-09-17T12:21:20;97393.27;;;13.43;69.47
58919;BME280;44704;50.122;19.932;2022-09-17T12:24:02;97386.50;;;13.38;69.87
58919;BME280;44704;50.122;19.932;2022-09-17T12:49:40;97355.40;;;13.12;71.81
58919;BME280;44704;50.122;19.932;2022-09-17T12:55:41;97350.67;;;13.25;71.14
58919;BME280;44704;50.122;19.932;2022-09-17T13:00:50;97350.94;;;13.34;70.82
58919;BME280;44704;50.122;19.932;2022-09-17T13:03:27;97342.81;;;13.38;70.49
58919;BME280;44704;50.122;19.932;2022-09-17T13:11:43;97332.48;;;13.36;70.66
58919;BME280;44704;50.122;19.932;2022-09-17T13:20:37;97335.27;;;13.18;70.97
58919;BME280;44704;50.122;19.932;2022-09-17T13:22:46;97335.20;;;13.16;70.95
58919;BME280;44704;50.122;19.932;2022-09-17T13:25:16;97329.55;;;13.12;70.90
58919;BME280;44704;50.122;19.932;2022-09-17T13:27:45;97329.00;;;13.06;70.95
58919;BME280;44704;50.122;19.932;2022-09-17T13:30:15;97326.48;;;13.01;71.25
58919;BME280;44704;50.122;19.932;2022-09-17T13:32:44;97333.41;;;12.97;71.08
58919;BME280;44704;50.122;19.932;2022-09-17T13:40:25;97332.71;;;13.01;71.63
58919;BME280;44704;50.122;19.932;2022-09-17T13:42:56;97339.59;;;13.02;71.44
58919;BME280;44704;50.122;19.932;2022-09-17T13:45:24;97341.17;;;13.02;72.07
58919;BME280;44704;50.122;19.932;2022-09-17T13:53:16;97338.80;;;13.15;71.95
58919;BME280;44704;50.122;19.932;2022-09-17T13:55:54;97329.36;;;13.14;71.80
58919;BME280;44704;50.122;19.932;2022-09-17T13:58:32;97328.40;;;13.11;72.06
58919;BME280;44704;50.122;19.932;2022-09-17T14:21:54;97281.55;;;12.58;73.17
58919;BME280;44704;50.122;19.932;2022-09-17T14:24:31;97280.45;;;12.63;73.91
58919;BME280;44704;50.122;19.932;2022-09-17T14:27:08;97289.11;;;12.73;74.11
58919;BME280;44704;50.122;19.932;2022-09-17T14:29:48;97287.88;;;12.82;73.97
58919;BME280;44704;50.122;19.932;2022-09-17T14:32:26;97292.82;;;12.90;74.13
58919;BME280;44704;50.122;19.932;2022-09-17T14:35:00;97298.58;;;12.99;73.96
58919;BME280;44704;50.122;19.932;2022-09-17T14:37:28;97300.43;;;13.05;73.89
58919;BME280;44704;50.122;19.932;2022-09-17T14:39:55;97295.31;;;13.08;73.62
58919;BME280;44704;50.122;19.932;2022-09-17T14:42:32;97290.67;;;13.12;73.59
58919;BME280;44704;50.122;19.932;2022-09-17T14:45:04;97288.70;;;13.23;75.04
58919;BME280;44704;50.122;19.932;2022-09-17T14:47:33;97291.41;;;13.31;73.66
58919;BME280;44704;50.122;19.932;2022-09-17T14:50:23;97299.45;;;13.29;73.37
58919;BME280;44704;50.122;19.932;2022-09-17T14:52:54;97306.02;;;13.27;73.31
58919;BME280;44704;50.122;19.932;2022-09-17T14:55:23;97309.96;;;13.23;73.20
58919;BME280;44704;50.122;19.932;2022-09-17T14:57:56;97311.90;;;13.20;73.43
58919;BME280;44704;50.122;19.932;2022-09-17T15:00:27;97309.39;;;13.16;73.65
58919;BME280;44704;50.122;19.932;2022-09-17T15:02:57;97310.17;;;13.13;73.75
58919;BME280;44704;50.122;19.932;2022-09-17T15:05:30;97308.89;;;13.10;74.05
58919;BME280;44704;50.122;19.932;2022-09-17T15:10:44;97303.58;;;13.05;74.41
58919;BME280;44704;50.122;19.932;2022-09-17T15:13:15;97300.54;;;13.04;74.52
58919;BME280;44704;50.122;19.932;2022-09-17T15:16:22;97291.28;;;13.01;74.15
58919;BME280;44704;50.122;19.932;2022-09-17T15:18:59;97282.73;;;12.92;73.95
58919;BME280;44704;50.122;19.932;2022-09-17T15:26:57;97273.45;;;12.77;74.03
58919;BME280;44704;50.122;19.932;2022-09-17T15:29:27;97267.64;;;12.72;73.89
58919;BME280;44704;50.122;19.932;2022-09-17T15:31:54;97270.49;;;12.71;74.11
58919;BME280;44704;50.122;19.932;2022-09-17T15:34:22;97272.98;;;12.67;74.02
58919;BME280;44704;50.122;19.932;2022-09-17T15:37:07;97274.04;;;12.66;74.10
58919;BME280;44704;50.122;19.932;2022-09-17T15:39:46;97282.69;;;12.64;74.28
58919;BME280;44704;50.122;19.932;2022-09-17T15:42:23;97284.66;;;12.64;74.23
58919;BME280;44704;50.122;19.932;2022-09-17T15:44:51;97287.91;;;12.61;74.45
58919;BME280;44704;50.122;19.932;2022-09-17T15:50:19;97295.25;;;12.58;74.91
58919;BME280;44704;50.122;19.932;2022-09-17T15:52:48;97296.62;;;12.57;75.02
58919;BME280;44704;50.122;19.932;2022-09-17T15:55:33;97294.35;;;12.56;75.08
58919;BME280;44704;50.122;19.932;2022-09-17T15:58:04;97296.38;;;12.53;75.04
58919;BME280;44704;50.122;19.932;2022-09-17T16:00:31;97303.83;;;12.52;75.33
58919;BME280;44704;50.122;19.932;2022-09-17T16:04:03;97309.41;;;12.50;75.59
58919;BME280;44704;50.122;19.932;2022-09-17T16:08:53;97312.59;;;12.47;75.82
58919;BME280;44704;50.122;19.932;2022-09-17T16:11:23;97318.27;;;12.48;76.22
58919;BME280;44704;50.122;19.932;2022-09-17T16:13:50;97313.96;;;12.47;75.92
58919;BME280;44704;50.122;19.932;2022-09-17T16:16:33;97313.39;;;12.45;76.32
58919;BME280;44704;50.122;19.932;2022-09-17T16:19:02;97309.52;;;12.43;76.32
58919;BME280;44704;50.122;19.932;2022-09-17T16:21:29;97314.98;;;12.42;76.38
58919;BME280;44704;50.122;19.932;2022-09-17T16:23:57;97310.59;;;12.40;76.62
58919;BME280;44704;50.122;19.932;2022-09-17T16:26:29;97314.97;;;12.37;76.49
58919;BME280;44704;50.122;19.932;2022-09-17T16:29:02;97321.20;;;12.35;76.89
58919;BME280;44704;50.122;19.932;2022-09-17T16:31:31;97319.52;;;12.33;77.12
58919;BME280;44704;50.122;19.932;2022-09-17T16:33:58;97322.49;;;12.30;77.31
58919;BME280;44704;50.122;19.932;2022-09-17T16:36:26;97318.36;;;12.28;77.22
58919;BME280;44704;50.122;19.932;2022-09-17T16:38:57;97309.23;;;12.24;77.28
58919;BME280;44704;50.122;19.932;2022-09-17T16:41:24;97316.69;;;12.21;77.62
58919;BME280;44704;50.122;19.932;2022-09-17T16:43:51;97317.81;;;12.15;77.64
58919;BME280;44704;50.122;19.932;2022-09-17T16:46:18;97313.52;;;12.10;78.10
58919;BME280;44704;50.122;19.932;2022-09-17T16:48:49;97316.77;;;12.05;78.28
58919;BME280;44704;50.122;19.932;2022-09-17T16:51:16;97313.20;;;12.01;78.53
58919;BME280;44704;50.122;19.932;2022-09-17T16:53:44;97310.98;;;11.98;78.73